sensor_id;sensor_type;location;lat;lon;timestamp;P1;durP1;ratioP1;P2;durP2;ratioP2
41556;SDS011;27720;51.992;5.890;2023-01-09T00:01:39;1.98;;;1.17;;
41556;SDS011;27720;51.992;5.890;2023-01-09T00:04:11;1.65;;;0.90;;
41556;SDS011;27720;51.992;5.890;2023-01-09T00:06:37;1.55;;;0.82;;
41556;SDS011;27720;51.992;5.890;2023-01-09T00:09:04;1.02;;;0.70;;
41556;SDS011;27720;51.992;5.890;2023-01-09T00:11:30;1.60;;;0.60;;
41556;SDS011;27720;51.992;5.890;2023-01-09T00:13:56;1.05;;;0.90;;
41556;SDS011;27720;51.992;5.890;2023-01-09T00:16:22;1.13;;;0.70;;
41556;SDS011;27720;51.992;5.890;2023-01-09T00:18:48;1.88;;;0.77;;
41556;SDS011;27720;51.992;5.890;2023-01-09T00:21:14;0.95;;;0.60;;
41556;SDS011;27720;51.992;5.890;2023-01-09T00:23:40;1.65;;;0.63;;
41556;SDS011;27720;51.992;5.890;2023-01-09T00:26:13;4.95;;;0.65;;
41556;SDS011;27720;51.992;5.890;2023-01-09T00:28:44;0.95;;;0.63;;
41556;SDS011;27720;51.992;5.890;2023-01-09T00:31:11;2.65;;;0.52;;
41556;SDS011;27720;51.992;5.890;2023-01-09T00:33:38;3.10;;;0.50;;
41556;SDS011;27720;51.992;5.890;2023-01-09T00:36:06;0.68;;;0.45;;
41556;SDS011;27720;51.992;5.890;2023-01-09T00:38:32;0.50;;;0.38;;
41556;SDS011;27720;51.992;5.890;2023-01-09T00:41:00;0.95;;;0.40;;
41556;SDS011;27720;51.992;5.890;2023-01-09T00:43:29;0.35;;;0.30;;
41556;SDS011;27720;51.992;5.890;2023-01-09T00:45:57;0.45;;;0.35;;
41556;SDS011;27720;51.992;5.890;2023-01-09T00:48:27;0.30;;;0.30;;
41556;SDS011;27720;51.992;5.890;2023-01-09T00:50:57;0.35;;;0.30;;
41556;SDS011;27720;51.992;5.890;2023-01-09T00:53:26;0.77;;;0.40;;
41556;SDS011;27720;51.992;5.890;2023-01-09T00:56:00;1.40;;;0.50;;
41556;SDS011;27720;51.992;5.890;2023-01-09T00:58:28;1.63;;;0.45;;
41556;SDS011;27720;51.992;5.890;2023-01-09T01:00:54;0.85;;;0.40;;
41556;SDS011;27720;51.992;5.890;2023-01-09T01:03:19;2.03;;;0.40;;
41556;SDS011;27720;51.992;5.890;2023-01-09T01:05:45;0.95;;;0.40;;
41556;SDS011;27720;51.992;5.890;2023-01-09T01:08:29;0.40;;;0.40;;
41556;SDS011;27720;51.992;5.890;2023-01-09T01:10:55;0.90;;;0.45;;
41556;SDS011;27720;51.992;5.890;2023-01-09T01:13:21;0.45;;;0.30;;
41556;SDS011;27720;51.992;5.890;2023-01-09T01:15:46;1.17;;;0.45;;
41556;SDS011;27720;51.992;5.890;2023-01-09T01:18:12;1.00;;;0.50;;
41556;SDS011;27720;51.992;5.890;2023-01-09T01:20:42;0.55;;;0.40;;
41556;SDS011;27720;51.992;5.890;2023-01-09T01:23:08;0.50;;;0.40;;
41556;SDS011;27720;51.992;5.890;2023-01-09T01:25:36;0.82;;;0.40;;
41556;SDS011;27720;51.992;5.890;2023-01-09T01:28:03;0.47;;;0.38;;
41556;SDS011;27720;51.992;5.890;2023-01-09T01:30:32;0.50;;;0.50;;
41556;SDS011;27720;51.992;5.890;2023-01-09T01:32:58;2.83;;;0.77;;
41556;SDS011;27720;51.992;5.890;2023-01-09T01:35:24;2.33;;;0.47;;
41556;SDS011;27720;51.992;5.890;2023-01-09T01:37:51;1.55;;;0.60;;
41556;SDS011;27720;51.992;5.890;2023-01-09T01:40:16;1.58;;;0.60;;
41556;SDS011;27720;51.992;5.890;2023-01-09T01:42:49;0.55;;;0.40;;
41556;SDS011;27720;51.992;5.890;2023-01-09T01:45:27;1.25;;;0.60;;
41556;SDS011;27720;51.992;5.890;2023-01-09T01:50:49;0.50;;;0.40;;
41556;SDS011;27720;51.992;5.890;2023-01-09T01:53:18;0.75;;;0.43;;
41556;SDS011;27720;51.992;5.890;2023-01-09T01:58:33;1.00;;;0.50;;
41556;SDS011;27720;51.992;5.890;2023-01-09T02:01:04;2.05;;;0.73;;
41556;SDS011;27720;51.992;5.890;2023-01-09T02:03:30;1.88;;;0.77;;
41556;SDS011;27720;51.992;5.890;2023-01-09T02:05:57;0.70;;;0.68;;
41556;SDS011;27720;51.992;5.890;2023-01-09T02:08:23;1.23;;;0.80;;
41556;SDS011;27720;51.992;5.890;2023-01-09T02:10:49;1.27;;;0.60;;
41556;SDS011;27720;51.992;5.890;2023-01-09T02:13:16;1.02;;;0.50;;
41556;SDS011;27720;51.992;5.890;2023-01-09T02:15:48;0.90;;;0.73;;
41556;SDS011;27720;51.992;5.890;2023-01-09T02:18:42;0.93;;;0.70;;
41556;SDS011;27720;51.992;5.890;2023-01-09T02:24:23;0.82;;;0.65;;
41556;SDS011;27720;51.992;5.890;2023-01-09T02:35:50;2.33;;;0.75;;
41556;SDS011;27720;51.992;5.890;2023-01-09T02:44:25;1.20;;;0.70;;
41556;SDS011;27720;51.992;5.890;2023-01-09T02:47:07;1.50;;;0.77;;
41556;SDS011;27720;51.992;5.890;2023-01-09T02:49:39;1.52;;;0.50;;
41556;SDS011;27720;51.992;5.890;2023-01-09T03:05:43;1.48;;;0.80;;
41556;SDS011;27720;51.992;5.890;2023-01-09T03:08:17;1.98;;;0.90;;
41556;SDS011;27720;51.992;5.890;2023-01-09T03:10:48;2.05;;;0.90;;
41556;SDS011;27720;51.992;5.890;2023-01-09T03:13:17;2.53;;;0.73;;
41556;SDS011;27720;51.992;5.890;2023-01-09T03:15:46;1.33;;;0.82;;
41556;SDS011;27720;51.992;5.890;2023-01-09T03:18:16;3.00;;;0.98;;
41556;SDS011;27720;51.992;5.890;2023-01-09T03:20:46;1.70;;;0.77;;
41556;SDS011;27720;51.992;5.890;2023-01-09T03:23:12;2.00;;;0.80;;
41556;SDS011;27720;51.992;5.890;2023-01-09T03:25:38;1.60;;;0.85;;
41556;SDS011;27720;51.992;5.890;2023-01-09T03:28:08;2.67;;;0.70;;
41556;SDS011;27720;51.992;5.890;2023-01-09T03:30:51;1.27;;;0.90;;
41556;SDS011;27720;51.992;5.890;2023-01-09T03:33:18;1.58;;;0.98;;
41556;SDS011;27720;51.992;5.890;2023-01-09T03:35:45;1.17;;;0.80;;
41556;SDS011;27720;51.992;5.890;2023-01-09T03:38:11;2.60;;;0.98;;
41556;SDS011;27720;51.992;5.890;2023-01-09T03:40:39;1.52;;;0.98;;
41556;SDS011;27720;51.992;5.890;2023-01-09T03:43:07;3.22;;;0.80;;
41556;SDS011;27720;51.992;5.890;2023-01-09T03:45:33;1.88;;;0.65;;
41556;SDS011;27720;51.992;5.890;2023-01-09T03:47:58;3.00;;;0.93;;
41556;SDS011;27720;51.992;5.890;2023-01-09T03:50:24;1.90;;;1.00;;
41556;SDS011;27720;51.992;5.890;2023-01-09T03:52:50;5.20;;;1.08;;
41556;SDS011;27720;51.992;5.890;2023-01-09T03:55:16;2.10;;;0.60;;
41556;SDS011;27720;51.992;5.890;2023-01-09T03:57:42;1.25;;;0.70;;
41556;SDS011;27720;51.992;5.890;2023-01-09T04:00:08;1.92;;;0.80;;
41556;SDS011;27720;51.992;5.890;2023-01-09T04:02:37;2.97;;;1.10;;
41556;SDS011;27720;51.992;5.890;2023-01-09T04:05:03;2.20;;;0.90;;
41556;SDS011;27720;51.992;5.890;2023-01-09T04:07:29;1.33;;;0.73;;
41556;SDS011;27720;51.992;5.890;2023-01-09T04:09:55;2.75;;;1.00;;
41556;SDS011;27720;51.992;5.890;2023-01-09T04:12:21;1.38;;;0.80;;
41556;SDS011;27720;51.992;5.890;2023-01-09T04:14:47;1.42;;;0.80;;
41556;SDS011;27720;51.992;5.890;2023-01-09T04:17:12;2.10;;;0.85;;
41556;SDS011;27720;51.992;5.890;2023-01-09T04:19:40;1.52;;;0.70;;
41556;SDS011;27720;51.992;5.890;2023-01-09T04:22:06;2.13;;;0.80;;
41556;SDS011;27720;51.992;5.890;2023-01-09T04:24:32;1.85;;;0.70;;
41556;SDS011;27720;51.992;5.890;2023-01-09T04:26:58;1.85;;;0.90;;
41556;SDS011;27720;51.992;5.890;2023-01-09T04:29:24;5.50;;;0.73;;
41556;SDS011;27720;51.992;5.890;2023-01-09T04:31:50;3.63;;;0.90;;
41556;SDS011;27720;51.992;5.890;2023-01-09T04:34:15;2.13;;;0.80;;
41556;SDS011;27720;51.992;5.890;2023-01-09T04:36:41;2.20;;;0.82;;
41556;SDS011;27720;51.992;5.890;2023-01-09T04:39:07;3.20;;;0.80;;
41556;SDS011;27720;51.992;5.890;2023-01-09T04:41:33;1.27;;;0.80;;
41556;SDS011;27720;51.992;5.890;2023-01-09T04:44:15;1.65;;;1.02;;
41556;SDS011;27720;51.992;5.890;2023-01-09T04:46:45;3.50;;;0.90;;
41556;SDS011;27720;51.992;5.890;2023-01-09T04:49:11;0.77;;;0.68;;
41556;SDS011;27720;51.992;5.890;2023-01-09T04:51:37;3.17;;;1.08;;
41556;SDS011;27720;51.992;5.890;2023-01-09T04:54:03;3.83;;;1.00;;
41556;SDS011;27720;51.992;5.890;2023-01-09T04:56:29;3.55;;;0.70;;
41556;SDS011;27720;51.992;5.890;2023-01-09T04:58:55;5.20;;;0.98;;
41556;SDS011;27720;51.992;5.890;2023-01-09T05:01:21;1.85;;;0.93;;
41556;SDS011;27720;51.992;5.890;2023-01-09T05:03:47;4.82;;;0.98;;
41556;SDS011;27720;51.992;5.890;2023-01-09T05:06:13;1.98;;;1.65;;
41556;SDS011;27720;51.992;5.890;2023-01-09T05:08:39;4.22;;;1.20;;
41556;SDS011;27720;51.992;5.890;2023-01-09T05:11:04;3.95;;;1.48;;
41556;SDS011;27720;51.992;5.890;2023-01-09T05:13:30;2.22;;;1.30;;
41556;SDS011;27720;51.992;5.890;2023-01-09T05:15:56;5.05;;;1.33;;
41556;SDS011;27720;51.992;5.890;2023-01-09T05:18:22;5.63;;;1.48;;
41556;SDS011;27720;51.992;5.890;2023-01-09T05:20:47;1.92;;;1.10;;
41556;SDS011;27720;51.992;5.890;2023-01-09T05:23:13;3.15;;;1.08;;
41556;SDS011;27720;51.992;5.890;2023-01-09T05:25:39;5.85;;;1.20;;
41556;SDS011;27720;51.992;5.890;2023-01-09T05:28:05;5.57;;;1.00;;
41556;SDS011;27720;51.992;5.890;2023-01-09T05:30:30;1.77;;;1.05;;
41556;SDS011;27720;51.992;5.890;2023-01-09T05:32:56;2.25;;;0.80;;
41556;SDS011;27720;51.992;5.890;2023-01-09T05:35:22;2.45;;;1.38;;
41556;SDS011;27720;51.992;5.890;2023-01-09T05:37:48;7.30;;;1.42;;
41556;SDS011;27720;51.992;5.890;2023-01-09T05:40:13;2.60;;;1.10;;
41556;SDS011;27720;51.992;5.890;2023-01-09T05:42:41;2.17;;;0.70;;
41556;SDS011;27720;51.992;5.890;2023-01-09T05:45:07;2.92;;;0.95;;
41556;SDS011;27720;51.992;5.890;2023-01-09T05:47:34;2.40;;;0.50;;
41556;SDS011;27720;51.992;5.890;2023-01-09T05:50:00;2.58;;;0.70;;
41556;SDS011;27720;51.992;5.890;2023-01-09T05:52:26;2.03;;;1.02;;
41556;SDS011;27720;51.992;5.890;2023-01-09T05:54:51;3.60;;;1.08;;
41556;SDS011;27720;51.992;5.890;2023-01-09T05:57:17;1.98;;;1.00;;
41556;SDS011;27720;51.992;5.890;2023-01-09T05:59:46;1.83;;;1.20;;
41556;SDS011;27720;51.992;5.890;2023-01-09T06:02:12;1.50;;;0.82;;
41556;SDS011;27720;51.992;5.890;2023-01-09T06:04:37;3.67;;;0.80;;
41556;SDS011;27720;51.992;5.890;2023-01-09T06:07:03;2.60;;;1.20;;
41556;SDS011;27720;51.992;5.890;2023-01-09T06:09:29;2.00;;;0.90;;
41556;SDS011;27720;51.992;5.890;2023-01-09T06:11:55;1.20;;;0.60;;
41556;SDS011;27720;51.992;5.890;2023-01-09T06:14:22;5.32;;;1.20;;
41556;SDS011;27720;51.992;5.890;2023-01-09T06:16:48;3.72;;;0.85;;
41556;SDS011;27720;51.992;5.890;2023-01-09T06:19:14;2.65;;;0.93;;
41556;SDS011;27720;51.992;5.890;2023-01-09T06:21:40;3.70;;;1.50;;
41556;SDS011;27720;51.992;5.890;2023-01-09T06:24:06;5.65;;;1.38;;
41556;SDS011;27720;51.992;5.890;2023-01-09T06:26:32;3.30;;;0.90;;
41556;SDS011;27720;51.992;5.890;2023-01-09T06:28:57;4.70;;;0.68;;
41556;SDS011;27720;51.992;5.890;2023-01-09T06:31:25;2.55;;;1.02;;
41556;SDS011;27720;51.992;5.890;2023-01-09T06:33:51;2.88;;;0.85;;
41556;SDS011;27720;51.992;5.890;2023-01-09T06:36:17;4.72;;;1.00;;
41556;SDS011;27720;51.992;5.890;2023-01-09T06:38:43;2.15;;;0.80;;
41556;SDS011;27720;51.992;5.890;2023-01-09T06:41:09;3.80;;;0.85;;
41556;SDS011;27720;51.992;5.890;2023-01-09T06:43:35;3.20;;;1.00;;
41556;SDS011;27720;51.992;5.890;2023-01-09T06:46:01;11.32;;;1.27;;
41556;SDS011;27720;51.992;5.890;2023-01-09T06:48:28;2.40;;;0.95;;
41556;SDS011;27720;51.992;5.890;2023-01-09T06:50:54;6.95;;;1.35;;
41556;SDS011;27720;51.992;5.890;2023-01-09T06:53:19;3.47;;;0.82;;
41556;SDS011;27720;51.992;5.890;2023-01-09T06:55:45;3.90;;;1.10;;
41556;SDS011;27720;51.992;5.890;2023-01-09T06:58:11;1.25;;;0.75;;
41556;SDS011;27720;51.992;5.890;2023-01-09T07:00:37;4.28;;;1.00;;
41556;SDS011;27720;51.992;5.890;2023-01-09T07:03:03;2.05;;;1.08;;
41556;SDS011;27720;51.992;5.890;2023-01-09T07:05:29;4.03;;;1.45;;
41556;SDS011;27720;51.992;5.890;2023-01-09T07:07:56;1.40;;;0.75;;
41556;SDS011;27720;51.992;5.890;2023-01-09T07:10:22;3.45;;;0.75;;
41556;SDS011;27720;51.992;5.890;2023-01-09T07:12:48;7.72;;;2.30;;
41556;SDS011;27720;51.992;5.890;2023-01-09T07:15:14;3.17;;;1.15;;
41556;SDS011;27720;51.992;5.890;2023-01-09T07:17:40;3.53;;;1.00;;
41556;SDS011;27720;51.992;5.890;2023-01-09T07:20:06;6.32;;;1.20;;
41556;SDS011;27720;51.992;5.890;2023-01-09T07:22:33;5.00;;;1.15;;
41556;SDS011;27720;51.992;5.890;2023-01-09T07:24:59;5.40;;;1.15;;
41556;SDS011;27720;51.992;5.890;2023-01-09T07:27:24;2.65;;;1.05;;
41556;SDS011;27720;51.992;5.890;2023-01-09T07:29:50;3.00;;;1.20;;
41556;SDS011;27720;51.992;5.890;2023-01-09T07:32:17;7.03;;;0.95;;
41556;SDS011;27720;51.992;5.890;2023-01-09T07:34:48;1.02;;;0.65;;
41556;SDS011;27720;51.992;5.890;2023-01-09T07:37:15;4.10;;;0.77;;
41556;SDS011;27720;51.992;5.890;2023-01-09T07:39:41;5.95;;;1.17;;
41556;SDS011;27720;51.992;5.890;2023-01-09T07:42:07;5.30;;;0.88;;
41556;SDS011;27720;51.992;5.890;2023-01-09T07:44:35;6.43;;;0.88;;
41556;SDS011;27720;51.992;5.890;2023-01-09T07:47:00;7.88;;;1.35;;
41556;SDS011;27720;51.992;5.890;2023-01-09T07:49:26;2.42;;;1.00;;
41556;SDS011;27720;51.992;5.890;2023-01-09T07:51:52;5.85;;;1.17;;
41556;SDS011;27720;51.992;5.890;2023-01-09T07:54:18;1.92;;;1.10;;
41556;SDS011;27720;51.992;5.890;2023-01-09T07:56:44;3.80;;;1.27;;
41556;SDS011;27720;51.992;5.890;2023-01-09T07:59:10;8.10;;;1.30;;
41556;SDS011;27720;51.992;5.890;2023-01-09T08:01:35;5.18;;;1.23;;
41556;SDS011;27720;51.992;5.890;2023-01-09T08:04:01;1.98;;;1.17;;
41556;SDS011;27720;51.992;5.890;2023-01-09T08:06:27;4.10;;;1.25;;
41556;SDS011;27720;51.992;5.890;2023-01-09T08:08:53;5.65;;;1.65;;
41556;SDS011;27720;51.992;5.890;2023-01-09T08:11:19;3.97;;;2.35;;
41556;SDS011;27720;51.992;5.890;2023-01-09T08:13:47;3.25;;;1.40;;
41556;SDS011;27720;51.992;5.890;2023-01-09T08:16:13;2.90;;;1.20;;
41556;SDS011;27720;51.992;5.890;2023-01-09T08:18:39;4.32;;;1.48;;
41556;SDS011;27720;51.992;5.890;2023-01-09T08:21:05;7.13;;;1.88;;
41556;SDS011;27720;51.992;5.890;2023-01-09T08:23:30;3.75;;;1.60;;
41556;SDS011;27720;51.992;5.890;2023-01-09T08:25:56;6.65;;;2.00;;
41556;SDS011;27720;51.992;5.890;2023-01-09T08:28:22;4.45;;;1.60;;
41556;SDS011;27720;51.992;5.890;2023-01-09T08:30:48;3.95;;;1.42;;
41556;SDS011;27720;51.992;5.890;2023-01-09T08:33:14;2.38;;;1.10;;
41556;SDS011;27720;51.992;5.890;2023-01-09T08:35:39;3.03;;;1.50;;
41556;SDS011;27720;51.992;5.890;2023-01-09T08:38:08;2.92;;;1.80;;
41556;SDS011;27720;51.992;5.890;2023-01-09T08:40:33;7.88;;;2.03;;
41556;SDS011;27720;51.992;5.890;2023-01-09T08:42:59;6.18;;;1.92;;
41556;SDS011;27720;51.992;5.890;2023-01-09T08:45:43;4.65;;;1.48;;
41556;SDS011;27720;51.992;5.890;2023-01-09T08:51:12;3.72;;;1.50;;
41556;SDS011;27720;51.992;5.890;2023-01-09T08:53:38;7.88;;;1.95;;
41556;SDS011;27720;51.992;5.890;2023-01-09T08:56:03;3.10;;;1.70;;
41556;SDS011;27720;51.992;5.890;2023-01-09T08:58:30;5.10;;;1.88;;
41556;SDS011;27720;51.992;5.890;2023-01-09T09:00:56;2.25;;;1.48;;
41556;SDS011;27720;51.992;5.890;2023-01-09T09:03:23;6.15;;;1.92;;
41556;SDS011;27720;51.992;5.890;2023-01-09T09:05:49;3.45;;;2.08;;
41556;SDS011;27720;51.992;5.890;2023-01-09T09:08:14;4.38;;;1.70;;
41556;SDS011;27720;51.992;5.890;2023-01-09T09:10:40;3.13;;;1.50;;
41556;SDS011;27720;51.992;5.890;2023-01-09T09:13:06;4.03;;;1.58;;
41556;SDS011;27720;51.992;5.890;2023-01-09T09:15:32;2.65;;;1.90;;
41556;SDS011;27720;51.992;5.890;2023-01-09T09:18:02;5.28;;;2.10;;
41556;SDS011;27720;51.992;5.890;2023-01-09T09:20:31;5.00;;;2.25;;
41556;SDS011;27720;51.992;5.890;2023-01-09T09:22:58;3.97;;;2.40;;
41556;SDS011;27720;51.992;5.890;2023-01-09T09:25:24;6.35;;;2.55;;
41556;SDS011;27720;51.992;5.890;2023-01-09T09:27:50;5.40;;;2.60;;
41556;SDS011;27720;51.992;5.890;2023-01-09T09:30:17;3.15;;;1.95;;
41556;SDS011;27720;51.992;5.890;2023-01-09T09:32:44;3.53;;;2.05;;
41556;SDS011;27720;51.992;5.890;2023-01-09T09:35:10;4.68;;;2.45;;
41556;SDS011;27720;51.992;5.890;2023-01-09T09:37:36;4.15;;;2.45;;
41556;SDS011;27720;51.992;5.890;2023-01-09T09:40:03;5.78;;;2.25;;
41556;SDS011;27720;51.992;5.890;2023-01-09T09:53:26;4.63;;;2.33;;
41556;SDS011;27720;51.992;5.890;2023-01-09T09:56:14;3.20;;;1.90;;
41556;SDS011;27720;51.992;5.890;2023-01-09T09:59:01;3.88;;;1.85;;
41556;SDS011;27720;51.992;5.890;2023-01-09T10:01:39;10.75;;;2.25;;
41556;SDS011;27720;51.992;5.890;2023-01-09T10:04:15;4.32;;;1.75;;
41556;SDS011;27720;51.992;5.890;2023-01-09T10:06:51;4.63;;;2.10;;
41556;SDS011;27720;51.992;5.890;2023-01-09T10:14:52;3.92;;;1.80;;
41556;SDS011;27720;51.992;5.890;2023-01-09T10:17:28;5.85;;;2.47;;
41556;SDS011;27720;51.992;5.890;2023-01-09T10:25:55;5.72;;;2.25;;
41556;SDS011;27720;51.992;5.890;2023-01-09T10:31:27;4.85;;;2.03;;
41556;SDS011;27720;51.992;5.890;2023-01-09T10:34:08;5.43;;;2.75;;
41556;SDS011;27720;51.992;5.890;2023-01-09T10:37:04;5.55;;;2.42;;
41556;SDS011;27720;51.992;5.890;2023-01-09T10:39:38;8.88;;;2.97;;
41556;SDS011;27720;51.992;5.890;2023-01-09T10:42:21;4.18;;;2.55;;
41556;SDS011;27720;51.992;5.890;2023-01-09T10:45:15;4.00;;;2.42;;
41556;SDS011;27720;51.992;5.890;2023-01-09T10:47:52;5.88;;;2.20;;
41556;SDS011;27720;51.992;5.890;2023-01-09T10:50:26;4.13;;;2.35;;
41556;SDS011;27720;51.992;5.890;2023-01-09T10:52:57;7.43;;;2.28;;
41556;SDS011;27720;51.992;5.890;2023-01-09T10:55:41;8.50;;;2.67;;
41556;SDS011;27720;51.992;5.890;2023-01-09T11:00:44;5.65;;;2.33;;
41556;SDS011;27720;51.992;5.890;2023-01-09T11:03:12;4.72;;;2.15;;
41556;SDS011;27720;51.992;5.890;2023-01-09T11:05:42;4.10;;;2.00;;
41556;SDS011;27720;51.992;5.890;2023-01-09T11:11:00;4.47;;;2.10;;
41556;SDS011;27720;51.992;5.890;2023-01-09T11:13:28;6.75;;;1.73;;
41556;SDS011;27720;51.992;5.890;2023-01-09T11:18:53;6.57;;;2.33;;
41556;SDS011;27720;51.992;5.890;2023-01-09T11:27:31;3.55;;;2.42;;
41556;SDS011;27720;51.992;5.890;2023-01-09T11:29:38;6.25;;;2.03;;
41556;SDS011;27720;51.992;5.890;2023-01-09T11:32:04;3.00;;;1.60;;
41556;SDS011;27720;51.992;5.890;2023-01-09T11:34:45;6.15;;;1.90;;
41556;SDS011;27720;51.992;5.890;2023-01-09T11:37:11;5.53;;;1.48;;
41556;SDS011;27720;51.992;5.890;2023-01-09T11:39:43;3.88;;;1.30;;
41556;SDS011;27720;51.992;5.890;2023-01-09T11:42:24;7.05;;;2.40;;
41556;SDS011;27720;51.992;5.890;2023-01-09T11:45:17;2.17;;;1.30;;
41556;SDS011;27720;51.992;5.890;2023-01-09T11:47:53;4.57;;;1.60;;
41556;SDS011;27720;51.992;5.890;2023-01-09T11:50:23;3.67;;;1.48;;
41556;SDS011;27720;51.992;5.890;2023-01-09T11:55:35;6.50;;;1.65;;
41556;SDS011;27720;51.992;5.890;2023-01-09T11:58:01;7.25;;;2.40;;
41556;SDS011;27720;51.992;5.890;2023-01-09T12:00:29;4.00;;;1.63;;
41556;SDS011;27720;51.992;5.890;2023-01-09T12:03:23;9.27;;;2.17;;
41556;SDS011;27720;51.992;5.890;2023-01-09T12:05:56;3.47;;;1.38;;
41556;SDS011;27720;51.992;5.890;2023-01-09T12:08:33;3.92;;;1.67;;
41556;SDS011;27720;51.992;5.890;2023-01-09T12:16:44;5.18;;;1.85;;
41556;SDS011;27720;51.992;5.890;2023-01-09T12:36:08;2.78;;;1.42;;
41556;SDS011;27720;51.992;5.890;2023-01-09T12:38:40;8.25;;;1.60;;
41556;SDS011;27720;51.992;5.890;2023-01-09T12:42:00;9.10;;;1.80;;
41556;SDS011;27720;51.992;5.890;2023-01-09T12:44:49;2.80;;;1.38;;
41556;SDS011;27720;51.992;5.890;2023-01-09T12:47:30;8.45;;;2.28;;
41556;SDS011;27720;51.992;5.890;2023-01-09T12:56:05;5.85;;;1.88;;
41556;SDS011;27720;51.992;5.890;2023-01-09T13:01:42;7.90;;;2.03;;
41556;SDS011;27720;51.992;5.890;2023-01-09T13:04:18;11.32;;;2.22;;
41556;SDS011;27720;51.992;5.890;2023-01-09T13:06:56;4.43;;;1.85;;
41556;SDS011;27720;51.992;5.890;2023-01-09T13:09:36;7.85;;;1.88;;
41556;SDS011;27720;51.992;5.890;2023-01-09T13:12:07;8.02;;;2.13;;
41556;SDS011;27720;51.992;5.890;2023-01-09T13:17:37;6.70;;;1.98;;
41556;SDS011;27720;51.992;5.890;2023-01-09T13:20:45;5.80;;;1.92;;
41556;SDS011;27720;51.992;5.890;2023-01-09T13:23:08;7.95;;;2.00;;
41556;SDS011;27720;51.992;5.890;2023-01-09T13:25:46;11.88;;;2.33;;
41556;SDS011;27720;51.992;5.890;2023-01-09T13:28:17;4.72;;;1.67;;
41556;SDS011;27720;51.992;5.890;2023-01-09T13:33:24;7.10;;;1.90;;
41556;SDS011;27720;51.992;5.890;2023-01-09T13:35:56;7.03;;;1.50;;
41556;SDS011;27720;51.992;5.890;2023-01-09T13:38:25;6.93;;;1.70;;
41556;SDS011;27720;51.992;5.890;2023-01-09T13:41:07;7.30;;;1.35;;
41556;SDS011;27720;51.992;5.890;2023-01-09T13:46:41;5.00;;;1.25;;
41556;SDS011;27720;51.992;5.890;2023-01-09T13:49:28;9.10;;;1.33;;
41556;SDS011;27720;51.992;5.890;2023-01-09T13:54:58;5.35;;;1.67;;
41556;SDS011;27720;51.992;5.890;2023-01-09T13:57:34;4.03;;;1.63;;
41556;SDS011;27720;51.992;5.890;2023-01-09T14:05:12;9.52;;;1.65;;
41556;SDS011;27720;51.992;5.890;2023-01-09T14:08:04;5.57;;;1.58;;
41556;SDS011;27720;51.992;5.890;2023-01-09T14:13:14;5.95;;;1.83;;
41556;SDS011;27720;51.992;5.890;2023-01-09T14:18:49;4.72;;;2.03;;
41556;SDS011;27720;51.992;5.890;2023-01-09T14:21:50;6.85;;;1.73;;
41556;SDS011;27720;51.992;5.890;2023-01-09T14:24:22;3.80;;;1.67;;
41556;SDS011;27720;51.992;5.890;2023-01-09T14:27:03;2.72;;;1.02;;
41556;SDS011;27720;51.992;5.890;2023-01-09T14:34:45;4.03;;;0.88;;
41556;SDS011;27720;51.992;5.890;2023-01-09T14:37:18;5.80;;;0.88;;
41556;SDS011;27720;51.992;5.890;2023-01-09T14:39:45;4.50;;;1.00;;
41556;SDS011;27720;51.992;5.890;2023-01-09T14:42:14;5.00;;;0.80;;
41556;SDS011;27720;51.992;5.890;2023-01-09T14:50:27;2.33;;;0.75;;
41556;SDS011;27720;51.992;5.890;2023-01-09T14:53:18;3.00;;;0.73;;
41556;SDS011;27720;51.992;5.890;2023-01-09T14:58:26;3.28;;;1.25;;
41556;SDS011;27720;51.992;5.890;2023-01-09T15:01:05;1.63;;;1.10;;
41556;SDS011;27720;51.992;5.890;2023-01-09T15:06:11;7.40;;;1.98;;
41556;SDS011;27720;51.992;5.890;2023-01-09T15:08:45;3.10;;;1.10;;
41556;SDS011;27720;51.992;5.890;2023-01-09T15:11:15;2.15;;;1.15;;
41556;SDS011;27720;51.992;5.890;2023-01-09T15:13:43;3.20;;;1.15;;
41556;SDS011;27720;51.992;5.890;2023-01-09T15:16:16;3.38;;;1.05;;
41556;SDS011;27720;51.992;5.890;2023-01-09T15:18:45;7.93;;;1.30;;
41556;SDS011;27720;51.992;5.890;2023-01-09T15:21:17;8.38;;;3.35;;
41556;SDS011;27720;51.992;5.890;2023-01-09T15:23:46;5.25;;;1.92;;
41556;SDS011;27720;51.992;5.890;2023-01-09T15:26:13;3.58;;;1.40;;
41556;SDS011;27720;51.992;5.890;2023-01-09T15:28:51;4.57;;;1.83;;
41556;SDS011;27720;51.992;5.890;2023-01-09T15:31:18;3.28;;;1.45;;
41556;SDS011;27720;51.992;5.890;2023-01-09T15:33:47;5.65;;;1.40;;
41556;SDS011;27720;51.992;5.890;2023-01-09T15:38:42;2.25;;;0.90;;
41556;SDS011;27720;51.992;5.890;2023-01-09T15:41:10;7.93;;;1.25;;
41556;SDS011;27720;51.992;5.890;2023-01-09T15:44:02;10.75;;;2.17;;
41556;SDS011;27720;51.992;5.890;2023-01-09T15:46:29;2.55;;;1.20;;
41556;SDS011;27720;51.992;5.890;2023-01-09T15:48:55;3.53;;;1.10;;
41556;SDS011;27720;51.992;5.890;2023-01-09T15:51:21;8.30;;;1.90;;
41556;SDS011;27720;51.992;5.890;2023-01-09T15:53:48;6.50;;;1.50;;
41556;SDS011;27720;51.992;5.890;2023-01-09T15:56:15;3.33;;;1.17;;
41556;SDS011;27720;51.992;5.890;2023-01-09T15:58:48;3.10;;;1.02;;
41556;SDS011;27720;51.992;5.890;2023-01-09T16:04:05;6.25;;;1.23;;
41556;SDS011;27720;51.992;5.890;2023-01-09T16:06:37;7.68;;;1.25;;
41556;SDS011;27720;51.992;5.890;2023-01-09T16:09:21;3.20;;;0.93;;
41556;SDS011;27720;51.992;5.890;2023-01-09T16:11:56;1.75;;;0.95;;
41556;SDS011;27720;51.992;5.890;2023-01-09T16:14:25;3.08;;;1.17;;
41556;SDS011;27720;51.992;5.890;2023-01-09T16:17:06;3.63;;;1.45;;
41556;SDS011;27720;51.992;5.890;2023-01-09T16:19:46;5.05;;;1.35;;
41556;SDS011;27720;51.992;5.890;2023-01-09T16:22:30;6.93;;;1.60;;
41556;SDS011;27720;51.992;5.890;2023-01-09T16:24:58;1.95;;;1.02;;
41556;SDS011;27720;51.992;5.890;2023-01-09T16:27:29;5.68;;;1.00;;
41556;SDS011;27720;51.992;5.890;2023-01-09T16:29:59;4.03;;;1.27;;
41556;SDS011;27720;51.992;5.890;2023-01-09T16:32:34;4.43;;;1.33;;
41556;SDS011;27720;51.992;5.890;2023-01-09T16:35:18;7.22;;;1.10;;
41556;SDS011;27720;51.992;5.890;2023-01-09T16:37:46;6.13;;;1.33;;
41556;SDS011;27720;51.992;5.890;2023-01-09T16:42:50;3.20;;;1.40;;
41556;SDS011;27720;51.992;5.890;2023-01-09T16:45:27;6.28;;;1.85;;
41556;SDS011;27720;51.992;5.890;2023-01-09T16:47:56;5.88;;;1.45;;
41556;SDS011;27720;51.992;5.890;2023-01-09T16:50:22;3.97;;;2.05;;
41556;SDS011;27720;51.992;5.890;2023-01-09T16:52:49;11.25;;;2.40;;
41556;SDS011;27720;51.992;5.890;2023-01-09T16:55:15;3.83;;;1.70;;
41556;SDS011;27720;51.992;5.890;2023-01-09T16:57:41;6.85;;;1.80;;
41556;SDS011;27720;51.992;5.890;2023-01-09T17:00:14;4.47;;;2.53;;
41556;SDS011;27720;51.992;5.890;2023-01-09T17:02:42;6.88;;;1.88;;
41556;SDS011;27720;51.992;5.890;2023-01-09T17:05:07;6.40;;;2.38;;
41556;SDS011;27720;51.992;5.890;2023-01-09T17:07:33;7.05;;;2.28;;
41556;SDS011;27720;51.992;5.890;2023-01-09T17:09:59;8.35;;;2.40;;
41556;SDS011;27720;51.992;5.890;2023-01-09T17:12:25;8.68;;;2.25;;
41556;SDS011;27720;51.992;5.890;2023-01-09T17:14:52;7.75;;;2.20;;
41556;SDS011;27720;51.992;5.890;2023-01-09T17:17:20;5.30;;;3.08;;
41556;SDS011;27720;51.992;5.890;2023-01-09T17:19:46;8.32;;;2.85;;
41556;SDS011;27720;51.992;5.890;2023-01-09T17:22:12;5.47;;;2.42;;
41556;SDS011;27720;51.992;5.890;2023-01-09T17:24:38;5.50;;;2.65;;
41556;SDS011;27720;51.992;5.890;2023-01-09T17:27:25;4.88;;;2.30;;
41556;SDS011;27720;51.992;5.890;2023-01-09T17:30:15;5.93;;;2.25;;
41556;SDS011;27720;51.992;5.890;2023-01-09T17:32:42;7.97;;;2.85;;
41556;SDS011;27720;51.992;5.890;2023-01-09T17:35:10;6.35;;;2.60;;
41556;SDS011;27720;51.992;5.890;2023-01-09T17:37:37;12.63;;;4.95;;
41556;SDS011;27720;51.992;5.890;2023-01-09T17:40:04;18.48;;;6.82;;
41556;SDS011;27720;51.992;5.890;2023-01-09T17:42:41;19.40;;;7.32;;
41556;SDS011;27720;51.992;5.890;2023-01-09T17:45:07;18.15;;;6.43;;